createdAt,value
2023-05-21T00:00:30.229Z,8.30
2023-05-21T00:02:59.632Z,8.80
2023-05-21T00:05:26.975Z,7.80
2023-05-21T00:07:55.311Z,7.80
2023-05-21T00:10:22.559Z,7.60
2023-05-21T00:12:49.725Z,7.70
2023-05-21T00:15:16.801Z,7.80
2023-05-21T00:17:44.550Z,7.70
2023-05-21T00:20:11.960Z,8.00
2023-05-21T00:22:40.648Z,7.80
2023-05-21T00:25:07.869Z,7.40
2023-05-21T00:27:34.948Z,7.60
2023-05-21T00:30:02.014Z,7.50
2023-05-21T00:32:29.904Z,7.70
2023-05-21T00:34:58.508Z,8.00
2023-05-21T00:37:25.583Z,8.40
2023-05-21T00:39:52.647Z,7.90
2023-05-21T00:42:19.667Z,7.40
2023-05-21T00:44:46.882Z,6.90
2023-05-21T00:47:14.191Z,7.80
2023-05-21T00:49:41.858Z,7.00
2023-05-21T00:52:08.970Z,7.50
2023-05-21T00:54:36.227Z,6.30
2023-05-21T00:57:04.182Z,6.60
2023-05-21T00:59:31.715Z,7.80
2023-05-21T01:02:04.518Z,7.10
2023-05-21T01:04:32.511Z,6.10
2023-05-21T01:06:59.589Z,6.10
2023-05-21T01:09:27.027Z,6.50
2023-05-21T01:11:55.966Z,7.10
2023-05-21T01:14:24.520Z,7.00
2023-05-21T01:16:52.558Z,6.50
2023-05-21T01:19:21.009Z,6.30
2023-05-21T01:21:53.118Z,5.90
2023-05-21T01:24:20.588Z,7.00
2023-05-21T01:26:47.607Z,5.70
2023-05-21T01:29:15.340Z,6.50
2023-05-21T01:32:01.532Z,6.90
2023-05-21T01:34:47.483Z,6.30
2023-05-21T01:37:37.762Z,6.50
2023-05-21T01:40:14.170Z,6.10
2023-05-21T01:42:43.623Z,7.00
2023-05-21T01:45:11.919Z,6.60
2023-05-21T01:47:40.249Z,6.80
2023-05-21T01:50:08.265Z,7.00
2023-05-21T01:52:36.350Z,7.20
2023-05-21T01:55:03.993Z,6.60
2023-05-21T01:57:32.047Z,6.70
2023-05-21T01:59:59.479Z,6.40
2023-05-21T02:02:26.608Z,6.20
2023-05-21T02:04:53.761Z,6.30
2023-05-21T02:07:20.805Z,5.70
2023-05-21T02:09:47.875Z,7.30
2023-05-21T02:12:15.022Z,6.60
2023-05-21T02:14:42.805Z,6.50
2023-05-21T02:17:10.740Z,5.70
2023-05-21T02:19:37.897Z,4.90
2023-05-21T02:22:05.046Z,4.70
2023-05-21T02:24:32.190Z,4.90
2023-05-21T02:26:59.239Z,4.80
2023-05-21T02:29:26.331Z,4.70
2023-05-21T02:31:53.455Z,6.10
2023-05-21T02:34:25.064Z,5.50
2023-05-21T02:36:55.040Z,6.10
2023-05-21T02:39:22.059Z,5.40
2023-05-21T02:41:49.123Z,6.70
2023-05-21T02:44:17.263Z,5.40
2023-05-21T02:46:44.405Z,6.00
2023-05-21T02:49:11.987Z,6.20
2023-05-21T02:51:40.047Z,6.10
2023-05-21T02:54:07.140Z,5.90
2023-05-21T02:56:34.190Z,5.40
2023-05-21T02:59:01.647Z,5.90
2023-05-21T03:01:28.786Z,6.40
2023-05-21T03:03:55.976Z,7.50
2023-05-21T03:06:23.172Z,6.00
2023-05-21T03:08:50.230Z,6.80
2023-05-21T03:11:19.022Z,6.00
2023-05-21T03:13:46.171Z,5.20
2023-05-21T03:16:14.365Z,6.10
2023-05-21T03:18:41.503Z,5.90
2023-05-21T03:21:08.615Z,5.80
2023-05-21T03:23:35.822Z,5.60
2023-05-21T03:26:02.873Z,5.80
2023-05-21T03:28:29.947Z,5.90
2023-05-21T03:30:57.272Z,5.90
2023-05-21T03:33:47.793Z,5.40
2023-05-21T03:36:21.794Z,5.00
2023-05-21T03:38:48.945Z,5.40
2023-05-21T03:41:16.081Z,5.30
2023-05-21T03:43:45.683Z,5.20
2023-05-21T03:46:13.254Z,5.60
2023-05-21T03:48:58.417Z,5.80
2023-05-21T03:51:26.157Z,5.80
2023-05-21T03:53:53.311Z,5.20
2023-05-21T03:56:20.415Z,5.10
2023-05-21T03:58:47.805Z,5.80
2023-05-21T04:01:14.848Z,6.80
2023-05-21T04:03:42.088Z,5.80
2023-05-21T04:06:10.533Z,6.20
2023-05-21T04:08:38.869Z,6.60
2023-05-21T04:11:06.059Z,6.60
2023-05-21T04:13:33.253Z,6.90
2023-05-21T04:16:00.351Z,6.30
2023-05-21T04:18:27.538Z,6.90
2023-05-21T04:20:54.850Z,6.80
2023-05-21T04:23:23.882Z,6.30
2023-05-21T04:25:51.563Z,6.40
2023-05-21T04:28:21.850Z,6.30
2023-05-21T04:30:50.296Z,6.90
2023-05-21T04:33:20.486Z,6.90
2023-05-21T04:35:50.360Z,6.90
2023-05-21T04:38:21.022Z,7.10
2023-05-21T04:40:51.065Z,6.90
2023-05-21T04:43:18.631Z,6.90
2023-05-21T04:45:45.714Z,7.00
2023-05-21T04:48:13.226Z,7.00
2023-05-21T04:50:41.813Z,7.70
2023-05-21T04:53:09.014Z,7.70
2023-05-21T04:55:40.057Z,8.20
2023-05-21T04:58:07.662Z,7.30
2023-05-21T05:00:38.029Z,7.20
2023-05-21T05:03:05.702Z,7.10
2023-05-21T05:05:32.939Z,7.30
2023-05-21T05:08:00.765Z,6.80
2023-05-21T05:10:27.946Z,7.80
2023-05-21T05:12:55.230Z,7.60
2023-05-21T05:15:22.307Z,7.50
2023-05-21T05:17:50.887Z,6.70
2023-05-21T05:20:18.102Z,6.10
2023-05-21T05:22:45.130Z,6.30
2023-05-21T05:25:13.462Z,6.00
2023-05-21T05:27:40.543Z,6.20
2023-05-21T05:30:08.510Z,6.40
2023-05-21T05:32:35.889Z,6.30
2023-05-21T05:35:03.404Z,5.90
2023-05-21T05:37:30.458Z,5.50
2023-05-21T05:39:57.607Z,6.20
2023-05-21T05:42:24.697Z,6.00
2023-05-21T05:44:51.817Z,6.40
2023-05-21T05:47:18.992Z,5.80
2023-05-21T05:49:46.046Z,6.10
2023-05-21T05:52:13.178Z,5.70
2023-05-21T05:54:40.814Z,5.90
2023-05-21T05:57:09.181Z,6.70
2023-05-21T05:59:36.660Z,5.90
2023-05-21T06:02:05.249Z,6.50
2023-05-21T06:04:32.317Z,6.20
2023-05-21T06:07:00.406Z,6.20
2023-05-21T06:09:27.501Z,6.80
2023-05-21T06:11:54.841Z,6.00
2023-05-21T06:14:21.950Z,6.00
2023-05-21T06:16:49.444Z,5.90
2023-05-21T06:19:16.646Z,5.40
2023-05-21T06:21:43.738Z,6.00
2023-05-21T06:24:10.827Z,6.00
2023-05-21T06:26:38.357Z,5.50
2023-05-21T06:29:05.897Z,6.00
2023-05-21T06:31:33.419Z,6.30
2023-05-21T06:34:01.234Z,5.70
2023-05-21T06:36:30.363Z,5.90
2023-05-21T06:38:57.702Z,5.70
2023-05-21T06:41:24.935Z,5.60
2023-05-21T06:43:56.111Z,5.90
2023-05-21T06:46:38.539Z,6.00
2023-05-21T06:49:08.197Z,5.60
2023-05-21T06:51:35.408Z,5.60
2023-05-21T06:54:03.577Z,6.20
2023-05-21T06:56:31.010Z,5.10
2023-05-21T06:58:58.200Z,5.50
2023-05-21T07:01:25.445Z,6.30
2023-05-21T07:03:53.377Z,6.20
2023-05-21T07:06:20.847Z,5.50
2023-05-21T07:08:50.167Z,6.10
2023-05-21T07:11:17.214Z,5.50
2023-05-21T07:13:44.732Z,5.60
2023-05-21T07:16:12.399Z,5.50
2023-05-21T07:18:39.911Z,5.90
2023-05-21T07:21:07.050Z,6.00
2023-05-21T07:23:34.114Z,5.60
2023-05-21T07:26:01.656Z,5.30
2023-05-21T07:28:29.495Z,6.40
2023-05-21T07:30:56.611Z,5.80
2023-05-21T07:33:28.629Z,5.60
2023-05-21T07:35:55.724Z,5.50
2023-05-21T07:38:23.794Z,5.70
2023-05-21T07:40:50.996Z,6.20
2023-05-21T07:43:18.674Z,6.30
2023-05-21T07:45:45.829Z,6.00
2023-05-21T07:48:12.872Z,5.40
2023-05-21T07:50:50.020Z,5.70
2023-05-21T07:53:17.485Z,5.80
2023-05-21T07:55:48.169Z,6.80
2023-05-21T07:58:19.192Z,6.40
2023-05-21T08:00:49.654Z,5.60
2023-05-21T08:03:18.798Z,5.80
2023-05-21T08:05:49.638Z,5.50
2023-05-21T08:08:18.175Z,5.40
2023-05-21T08:10:46.207Z,5.20
2023-05-21T08:13:13.534Z,5.50
2023-05-21T08:15:40.961Z,5.70
2023-05-21T08:18:08.391Z,5.30
2023-05-21T08:20:36.337Z,5.30
2023-05-21T08:23:04.530Z,5.10
2023-05-21T08:25:38.527Z,4.60
2023-05-21T08:28:07.650Z,5.90
2023-05-21T08:30:35.047Z,4.90
2023-05-21T08:33:02.836Z,5.00
2023-05-21T08:35:31.271Z,5.20
2023-05-21T08:38:05.547Z,5.30
2023-05-21T08:40:46.512Z,4.80
2023-05-21T08:43:16.305Z,4.90
2023-05-21T08:45:46.153Z,4.90
2023-05-21T08:48:17.304Z,5.00
2023-05-21T08:50:45.818Z,5.20
2023-05-21T08:53:27.414Z,5.10
2023-05-21T08:55:57.852Z,4.60
2023-05-21T08:58:34.118Z,4.50
2023-05-21T09:01:01.828Z,5.40
2023-05-21T09:03:30.657Z,4.50
2023-05-21T09:05:58.773Z,4.30
2023-05-21T09:08:33.248Z,4.90
2023-05-21T09:11:04.087Z,4.50
2023-05-21T09:13:44.851Z,4.80
2023-05-21T09:16:17.404Z,4.70
2023-05-21T09:18:45.727Z,4.60
2023-05-21T09:21:30.129Z,4.90
2023-05-21T09:24:17.880Z,4.90
2023-05-21T09:26:45.890Z,4.50
2023-05-21T09:29:13.785Z,4.60
2023-05-21T09:31:45.424Z,5.20
2023-05-21T09:34:14.498Z,4.60
2023-05-21T09:36:44.299Z,4.50
2023-05-21T09:39:16.725Z,5.10
2023-05-21T09:41:44.224Z,4.50
2023-05-21T09:44:11.454Z,4.80
2023-05-21T09:46:40.853Z,4.20
2023-05-21T09:49:22.293Z,4.60
2023-05-21T09:51:49.416Z,4.70
2023-05-21T09:54:16.584Z,4.50
2023-05-21T09:56:43.653Z,5.00
2023-05-21T09:59:10.808Z,5.10
2023-05-21T10:01:38.921Z,4.80
2023-05-21T10:04:09.968Z,4.70
2023-05-21T10:06:43.998Z,5.20
2023-05-21T10:09:11.861Z,5.20
2023-05-21T10:11:40.302Z,5.20
2023-05-21T10:14:08.455Z,5.50
2023-05-21T10:16:36.601Z,5.30
2023-05-21T10:19:04.782Z,5.10
2023-05-21T10:21:33.626Z,5.40
2023-05-21T10:24:02.495Z,5.70
2023-05-21T10:26:30.581Z,5.40
2023-05-21T10:29:00.576Z,4.90
2023-05-21T10:31:30.697Z,5.70
2023-05-21T10:33:58.488Z,4.70
2023-05-21T10:36:26.227Z,5.20
2023-05-21T10:38:53.513Z,4.70
2023-05-21T10:41:22.269Z,4.60
2023-05-21T10:44:08.002Z,4.60
2023-05-21T10:46:55.948Z,4.60
2023-05-21T10:49:42.103Z,4.40
2023-05-21T10:52:18.432Z,4.70
2023-05-21T10:55:01.150Z,4.70
2023-05-21T10:57:28.094Z,4.30
2023-05-21T10:59:55.828Z,4.70
2023-05-21T11:02:26.536Z,4.20
2023-05-21T11:05:04.635Z,4.70
2023-05-21T11:07:54.848Z,4.50
2023-05-21T11:10:38.965Z,4.60
2023-05-21T11:13:14.371Z,4.50
2023-05-21T11:16:01.569Z,4.70
2023-05-21T11:18:38.262Z,4.20
2023-05-21T11:21:06.740Z,4.70
2023-05-21T11:23:53.141Z,5.00
2023-05-21T11:26:21.970Z,4.30
2023-05-21T11:29:04.654Z,4.30
2023-05-21T11:31:50.415Z,4.40
2023-05-21T11:34:29.354Z,4.00
2023-05-21T11:37:16.488Z,4.60
2023-05-21T11:39:46.700Z,4.00
2023-05-21T11:42:13.800Z,4.40
2023-05-21T11:44:45.180Z,4.20
2023-05-21T11:47:13.383Z,4.70
2023-05-21T11:49:40.561Z,4.50
2023-05-21T11:52:08.378Z,4.70
2023-05-21T11:54:50.995Z,4.60
2023-05-21T11:57:19.877Z,4.50
2023-05-21T11:59:48.001Z,4.30
2023-05-21T12:02:19.286Z,4.20
2023-05-21T12:04:47.254Z,4.10
2023-05-21T12:07:15.542Z,4.30
2023-05-21T12:09:46.688Z,4.30
2023-05-21T12:12:18.190Z,4.40
2023-05-21T12:14:46.720Z,4.30
2023-05-21T12:17:16.832Z,4.20
2023-05-21T12:19:44.034Z,4.40
2023-05-21T12:22:11.339Z,4.50
2023-05-21T12:24:39.413Z,4.40
2023-05-21T12:27:10.529Z,4.40
2023-05-21T12:29:41.866Z,4.80
2023-05-21T12:32:09.956Z,4.60
2023-05-21T12:34:48.939Z,5.00
2023-05-21T12:37:26.664Z,5.30
2023-05-21T12:39:58.747Z,4.90
2023-05-21T12:42:35.556Z,5.10
2023-05-21T12:45:11.880Z,4.30
2023-05-21T12:47:39.075Z,4.60
2023-05-21T12:50:14.198Z,4.50
2023-05-21T12:52:44.788Z,4.10
2023-05-21T12:55:13.999Z,4.90
2023-05-21T12:57:41.685Z,4.20
2023-05-21T13:00:10.614Z,4.30
2023-05-21T13:02:42.138Z,4.40
2023-05-21T13:05:10.844Z,4.50
2023-05-21T13:07:38.861Z,4.20
2023-05-21T13:10:06.501Z,4.40
2023-05-21T13:12:34.291Z,4.70
2023-05-21T13:15:02.213Z,4.20
2023-05-21T13:17:29.507Z,4.40
2023-05-21T13:20:02.811Z,4.30
2023-05-21T13:22:29.839Z,4.10
2023-05-21T13:24:56.888Z,4.40
2023-05-21T13:27:23.892Z,4.50
2023-05-21T13:29:50.940Z,4.80
2023-05-21T13:32:19.156Z,4.70
2023-05-21T13:34:46.795Z,4.40
2023-05-21T13:37:14.295Z,4.30
2023-05-21T13:39:41.334Z,4.10
2023-05-21T13:42:08.368Z,4.30
2023-05-21T13:44:36.863Z,4.60
2023-05-21T13:47:04.517Z,4.50
2023-05-21T13:49:32.148Z,4.20
2023-05-21T13:52:00.471Z,4.40
2023-05-21T13:54:28.146Z,4.50
2023-05-21T13:56:55.653Z,4.60
2023-05-21T13:59:22.840Z,4.40
2023-05-21T14:01:50.275Z,4.50
2023-05-21T14:04:17.880Z,4.40
2023-05-21T14:06:45.165Z,3.90
2023-05-21T14:09:12.634Z,4.00
2023-05-21T14:11:39.758Z,4.00
2023-05-21T14:14:06.887Z,3.90
2023-05-21T14:16:33.943Z,4.00
2023-05-21T14:19:01.449Z,4.20
2023-05-21T14:21:29.495Z,4.40
2023-05-21T14:23:56.523Z,3.70
2023-05-21T14:26:23.562Z,3.70
2023-05-21T14:28:50.615Z,4.40
2023-05-21T14:31:17.721Z,4.30
2023-05-21T14:33:44.720Z,4.00
2023-05-21T14:36:11.765Z,3.80
2023-05-21T14:38:38.790Z,4.20
2023-05-21T14:41:07.533Z,4.30
2023-05-21T14:43:34.606Z,4.60
2023-05-21T14:46:01.724Z,4.30
2023-05-21T14:48:28.785Z,4.30
2023-05-21T14:50:55.924Z,4.80
2023-05-21T14:53:23.128Z,4.60
2023-05-21T14:55:50.214Z,4.80
2023-05-21T14:58:17.881Z,4.50
2023-05-21T15:00:44.905Z,4.40
2023-05-21T15:03:13.158Z,4.50
2023-05-21T15:05:40.292Z,4.40
2023-05-21T15:08:09.945Z,4.90
2023-05-21T15:10:37.060Z,4.80
2023-05-21T15:13:04.113Z,4.40
2023-05-21T15:15:31.144Z,4.40
2023-05-21T15:17:58.332Z,3.90
2023-05-21T15:20:25.748Z,4.40
2023-05-21T15:22:59.100Z,4.60
2023-05-21T15:25:36.164Z,4.00
2023-05-21T15:28:03.621Z,4.00
2023-05-21T15:30:31.005Z,4.40
2023-05-21T15:32:58.247Z,4.60
2023-05-21T15:35:25.510Z,4.50
2023-05-21T15:37:52.754Z,5.10
2023-05-21T15:40:20.015Z,5.10
2023-05-21T15:42:47.111Z,4.60
2023-05-21T15:45:14.242Z,4.40
2023-05-21T15:47:42.909Z,4.50
2023-05-21T15:50:11.272Z,4.60
2023-05-21T15:52:38.363Z,4.40
2023-05-21T15:55:05.591Z,4.00
2023-05-21T15:57:32.733Z,4.50
2023-05-21T15:59:59.863Z,4.60
2023-05-21T16:02:27.027Z,4.60
2023-05-21T16:04:54.213Z,4.20
2023-05-21T16:07:23.670Z,4.40
2023-05-21T16:09:50.759Z,4.30
2023-05-21T16:12:18.146Z,4.90
2023-05-21T16:14:45.657Z,4.90
2023-05-21T16:17:12.857Z,4.60
2023-05-21T16:19:40.257Z,5.00
2023-05-21T16:22:09.310Z,5.30
2023-05-21T16:24:37.897Z,5.20
2023-05-21T16:27:05.366Z,4.80
2023-05-21T16:29:32.554Z,5.50
2023-05-21T16:31:59.667Z,5.20
2023-05-21T16:34:28.000Z,5.10
2023-05-21T16:36:55.114Z,5.30
2023-05-21T16:39:23.163Z,5.10
2023-05-21T16:41:50.224Z,5.00
2023-05-21T16:44:17.433Z,5.10
2023-05-21T16:46:44.565Z,5.30
2023-05-21T16:49:12.282Z,4.80
2023-05-21T16:51:39.342Z,4.30
2023-05-21T16:54:06.598Z,4.80
2023-05-21T16:56:33.734Z,5.30
2023-05-21T16:59:00.899Z,5.20
2023-05-21T17:01:28.169Z,4.90
2023-05-21T17:03:56.451Z,4.80
2023-05-21T17:06:24.484Z,5.40
2023-05-21T17:08:51.665Z,4.90
2023-05-21T17:11:18.675Z,4.70
2023-05-21T17:13:48.502Z,4.70
2023-05-21T17:16:15.684Z,4.60
2023-05-21T17:18:43.263Z,4.80
2023-05-21T17:21:10.346Z,4.90
2023-05-21T17:23:37.427Z,4.80
2023-05-21T17:26:07.178Z,4.80
2023-05-21T17:28:34.191Z,5.10
2023-05-21T17:31:02.187Z,5.30
2023-05-21T17:33:29.414Z,4.70
2023-05-21T17:35:59.444Z,4.90
2023-05-21T17:38:26.502Z,5.00
2023-05-21T17:40:53.562Z,5.30
2023-05-21T17:43:20.689Z,5.90
2023-05-21T17:45:47.806Z,5.40
2023-05-21T17:48:14.924Z,5.00
2023-05-21T17:50:42.076Z,4.80
2023-05-21T17:53:09.154Z,4.80
2023-05-21T17:55:36.488Z,5.20
2023-05-21T17:58:05.789Z,5.30
2023-05-21T18:00:32.933Z,5.70
2023-05-21T18:03:00.069Z,5.00
2023-05-21T18:05:27.302Z,5.10
2023-05-21T18:07:54.459Z,4.90
2023-05-21T18:10:22.572Z,5.40
2023-05-21T18:12:49.647Z,5.00
2023-05-21T18:15:17.074Z,5.10
2023-05-21T18:17:51.839Z,5.50
2023-05-21T18:20:19.271Z,5.40
2023-05-21T18:22:46.290Z,7.60
2023-05-21T18:25:13.393Z,5.20
2023-05-21T18:27:40.514Z,4.60
2023-05-21T18:30:08.891Z,4.60
2023-05-21T18:32:39.502Z,5.10
2023-05-21T18:35:08.490Z,4.50
2023-05-21T18:37:35.652Z,5.10
2023-05-21T18:40:05.875Z,5.40
2023-05-21T18:42:33.011Z,5.10
2023-05-21T18:45:06.595Z,5.00
2023-05-21T18:47:33.888Z,5.00
2023-05-21T18:50:00.960Z,4.80
2023-05-21T18:52:28.015Z,5.60
2023-05-21T18:54:55.254Z,5.40
2023-05-21T18:57:22.460Z,5.10
2023-05-21T18:59:49.622Z,4.50
2023-05-21T19:02:16.758Z,5.10
2023-05-21T19:04:43.920Z,4.90
2023-05-21T19:07:11.033Z,5.60
2023-05-21T19:09:38.294Z,5.80
2023-05-21T19:12:05.445Z,5.80
2023-05-21T19:14:32.586Z,5.70
2023-05-21T19:16:59.712Z,6.30
2023-05-21T19:19:27.305Z,5.80
2023-05-21T19:21:54.683Z,5.50
2023-05-21T19:24:21.970Z,5.90
2023-05-21T19:26:49.315Z,5.40
2023-05-21T19:29:16.407Z,5.80
2023-05-21T19:31:43.652Z,5.90
2023-05-21T19:34:11.023Z,5.50
2023-05-21T19:36:51.429Z,5.90
2023-05-21T19:39:20.163Z,5.60
2023-05-21T19:41:47.362Z,5.20
2023-05-21T19:44:14.555Z,5.30
2023-05-21T19:46:41.649Z,5.40
2023-05-21T19:49:10.848Z,5.60
2023-05-21T19:51:38.027Z,5.70
2023-05-21T19:54:05.137Z,5.40
2023-05-21T19:56:32.214Z,5.00
2023-05-21T19:58:59.252Z,5.20
2023-05-21T20:01:26.384Z,5.40
2023-05-21T20:03:53.507Z,4.80
2023-05-21T20:06:21.027Z,5.80
2023-05-21T20:08:48.237Z,5.50
2023-05-21T20:11:15.503Z,5.20
2023-05-21T20:13:48.707Z,5.70
2023-05-21T20:16:16.953Z,5.60
2023-05-21T20:18:48.255Z,4.90
2023-05-21T20:21:18.314Z,5.50
2023-05-21T20:23:46.522Z,5.60
2023-05-21T20:26:19.701Z,5.10
2023-05-21T20:28:46.999Z,4.80
2023-05-21T20:31:14.101Z,5.30
2023-05-21T20:33:42.304Z,5.50
2023-05-21T20:36:09.349Z,5.00
2023-05-21T20:38:38.491Z,5.40
2023-05-21T20:41:06.092Z,6.20
2023-05-21T20:43:33.233Z,5.50
2023-05-21T20:46:00.430Z,5.30
2023-05-21T20:48:29.495Z,5.90
2023-05-21T20:51:00.612Z,6.00
2023-05-21T20:53:27.813Z,6.40
2023-05-21T20:55:55.051Z,6.80
2023-05-21T20:58:24.236Z,6.00
2023-05-21T21:00:51.661Z,6.80
2023-05-21T21:03:21.972Z,6.80
2023-05-21T21:05:49.104Z,6.80
2023-05-21T21:08:16.449Z,6.60
2023-05-21T21:10:47.094Z,6.80
2023-05-21T21:13:14.902Z,6.80
2023-05-21T21:15:44.113Z,6.40
2023-05-21T21:18:12.802Z,7.60
2023-05-21T21:20:41.733Z,6.60
2023-05-21T21:23:09.188Z,6.60
2023-05-21T21:25:36.518Z,6.90
2023-05-21T21:28:04.226Z,6.60
2023-05-21T21:30:31.349Z,6.20
2023-05-21T21:32:58.443Z,5.90
2023-05-21T21:35:25.609Z,6.50
2023-05-21T21:37:55.114Z,6.40
2023-05-21T21:40:22.218Z,6.10
2023-05-21T21:43:07.717Z,6.30
2023-05-21T21:45:35.472Z,5.80
2023-05-21T21:48:02.881Z,6.00
2023-05-21T21:50:30.077Z,6.10
2023-05-21T21:52:57.810Z,6.00
2023-05-21T21:55:24.840Z,6.30
2023-05-21T21:57:51.878Z,5.80
2023-05-21T22:00:19.098Z,6.80
2023-05-21T22:02:46.851Z,6.00
2023-05-21T22:05:17.104Z,6.10
2023-05-21T22:07:47.239Z,6.50
2023-05-21T22:10:18.101Z,6.90
2023-05-21T22:12:46.396Z,6.60
2023-05-21T22:15:28.981Z,6.90
2023-05-21T22:17:56.139Z,6.70
2023-05-21T22:20:23.453Z,8.70
2023-05-21T22:22:51.335Z,7.80
2023-05-21T22:25:19.814Z,6.70
2023-05-21T22:27:46.865Z,7.00
2023-05-21T22:30:13.948Z,6.00
2023-05-21T22:32:41.027Z,6.70
2023-05-21T22:35:08.760Z,6.80
2023-05-21T22:37:37.639Z,6.60
2023-05-21T22:40:08.716Z,7.50
2023-05-21T22:42:36.588Z,7.50
2023-05-21T22:45:04.098Z,7.20
2023-05-21T22:47:32.598Z,7.20
2023-05-21T22:50:00.991Z,7.90
2023-05-21T22:52:29.090Z,7.30
2023-05-21T22:54:58.169Z,7.40
2023-05-21T22:57:25.227Z,7.40
2023-05-21T22:59:52.357Z,6.30
2023-05-21T23:02:19.466Z,6.50
2023-05-21T23:04:46.705Z,6.60
2023-05-21T23:07:13.865Z,6.40
2023-05-21T23:09:41.463Z,6.30
2023-05-21T23:12:10.146Z,5.70
2023-05-21T23:14:37.185Z,6.70
2023-05-21T23:17:04.714Z,6.90
2023-05-21T23:19:33.043Z,6.50
2023-05-21T23:22:00.751Z,6.50
2023-05-21T23:24:29.669Z,6.40
2023-05-21T23:27:02.270Z,6.30
2023-05-21T23:29:30.548Z,7.10
2023-05-21T23:31:58.311Z,6.80
2023-05-21T23:34:25.950Z,5.80
2023-05-21T23:36:53.051Z,7.30
2023-05-21T23:39:20.119Z,6.50
2023-05-21T23:41:47.224Z,7.30
2023-05-21T23:44:15.680Z,6.70
2023-05-21T23:46:46.121Z,6.70
2023-05-21T23:49:13.173Z,7.30
2023-05-21T23:51:40.206Z,7.10
2023-05-21T23:54:08.412Z,7.30
2023-05-21T23:56:35.412Z,7.50
2023-05-21T23:59:02.461Z,7.80
